createdAt,value
2017-12-31T16:34:29.491Z,991.83
2017-12-31T16:35:30.504Z,991.91
2017-12-31T16:37:24.095Z,991.79
2017-12-31T16:38:24.102Z,991.80
2017-12-31T16:40:18.276Z,991.80
2017-12-31T16:41:14.959Z,991.86
2017-12-31T16:43:11.178Z,991.81
2017-12-31T16:44:11.185Z,991.86
2017-12-31T16:46:03.855Z,991.79
2017-12-31T16:47:04.816Z,991.75
2017-12-31T16:48:57.402Z,991.77
2017-12-31T16:49:58.470Z,991.70
2017-12-31T16:51:50.964Z,991.71
2017-12-31T16:52:51.857Z,991.68
2017-12-31T16:54:45.519Z,991.65
2017-12-31T16:55:44.576Z,991.60
2017-12-31T16:57:39.585Z,991.61
2017-12-31T16:58:36.325Z,991.54
2017-12-31T17:00:32.520Z,991.58
2017-12-31T17:01:32.571Z,991.59
2017-12-31T17:03:25.227Z,991.49
2017-12-31T17:04:26.129Z,991.44
2017-12-31T17:06:19.624Z,991.46
2017-12-31T17:07:19.680Z,991.43
2017-12-31T17:09:12.338Z,991.32
2017-12-31T17:11:26.650Z,991.33
2017-12-31T17:12:26.688Z,991.29
2017-12-31T17:14:20.830Z,991.44
2017-12-31T17:15:20.211Z,991.35
2017-12-31T17:17:13.810Z,991.42
2017-12-31T17:18:13.771Z,991.40
2017-12-31T17:20:06.308Z,991.44
2017-12-31T17:21:07.373Z,991.40
2017-12-31T17:23:00.966Z,991.41
2017-12-31T17:24:00.893Z,991.42
2017-12-31T17:25:51.673Z,991.47
2017-12-31T17:26:54.493Z,991.44
2017-12-31T17:28:48.012Z,991.35
2017-12-31T17:29:48.088Z,991.34
2017-12-31T17:31:40.570Z,991.40
2017-12-31T17:32:41.582Z,991.30
2017-12-31T17:34:35.068Z,991.37
2017-12-31T17:35:35.141Z,991.34
2017-12-31T17:37:28.433Z,991.30
2017-12-31T17:39:42.145Z,991.32
2017-12-31T17:40:42.125Z,991.24
2017-12-31T17:42:34.763Z,991.31
2017-12-31T17:43:35.269Z,991.33
2017-12-31T17:45:28.353Z,991.31
2017-12-31T17:46:29.239Z,991.32
2017-12-31T17:48:21.869Z,991.42
2017-12-31T17:49:22.790Z,991.32
2017-12-31T17:51:15.763Z,991.29
2017-12-31T17:52:16.365Z,991.35
2017-12-31T17:54:09.938Z,991.34
2017-12-31T17:55:09.914Z,991.31
2017-12-31T17:57:02.589Z,991.31
2017-12-31T17:58:03.478Z,991.40
2017-12-31T17:59:56.197Z,991.35
2017-12-31T18:00:54.387Z,991.33
2017-12-31T18:02:49.516Z,991.29
2017-12-31T18:03:50.628Z,991.38
2017-12-31T18:05:43.291Z,991.32
2017-12-31T18:06:44.171Z,991.32
2017-12-31T18:08:37.726Z,991.24
2017-12-31T18:09:37.731Z,991.12
2017-12-31T18:11:30.926Z,991.30
2017-12-31T18:12:31.322Z,991.22
2017-12-31T18:14:21.986Z,991.15
2017-12-31T18:15:24.906Z,991.17
2017-12-31T18:17:17.534Z,991.19
2017-12-31T18:18:15.740Z,991.18
2017-12-31T18:20:10.843Z,991.10
2017-12-31T18:21:11.970Z,991.11
2017-12-31T18:23:05.588Z,991.15
2017-12-31T18:24:05.565Z,991.14
2017-12-31T18:25:58.240Z,991.13
2017-12-31T18:26:59.096Z,991.17
2017-12-31T18:28:52.663Z,991.14
2017-12-31T18:29:52.688Z,991.10
2017-12-31T18:31:45.295Z,991.14
2017-12-31T18:32:46.206Z,991.15
2017-12-31T18:34:39.818Z,991.17
2017-12-31T18:35:37.111Z,991.14
2017-12-31T18:37:32.440Z,991.14
2017-12-31T18:38:33.336Z,991.15
2017-12-31T18:40:26.898Z,991.03
2017-12-31T18:41:26.927Z,991.04
2017-12-31T18:43:18.173Z,991.03
2017-12-31T18:44:20.462Z,991.01
2017-12-31T18:46:14.004Z,990.98
2017-12-31T18:47:14.021Z,990.96
2017-12-31T18:49:06.701Z,990.98
2017-12-31T18:50:07.585Z,990.97
2017-12-31T18:52:01.162Z,990.95
2017-12-31T18:53:01.194Z,990.94
2017-12-31T18:54:53.543Z,990.89
2017-12-31T18:55:54.696Z,990.88
2017-12-31T18:57:48.145Z,990.85
2017-12-31T18:58:48.292Z,990.84
2017-12-31T19:00:39.025Z,990.84
2017-12-31T19:01:41.861Z,990.75
2017-12-31T19:03:35.387Z,990.74
2017-12-31T19:04:35.428Z,990.72
2017-12-31T19:06:28.155Z,990.72
2017-12-31T19:07:28.973Z,990.66
2017-12-31T19:09:22.548Z,990.64
2017-12-31T19:10:22.512Z,990.68
2017-12-31T19:12:15.164Z,990.64
2017-12-31T19:13:16.023Z,990.60
2017-12-31T19:15:09.702Z,990.59
2017-12-31T19:16:09.664Z,990.51
2017-12-31T19:18:03.846Z,990.49
2017-12-31T19:19:03.186Z,990.50
2017-12-31T19:20:56.761Z,990.44
2017-12-31T19:21:56.817Z,990.44
2017-12-31T19:23:49.477Z,990.35
2017-12-31T19:24:50.374Z,990.36
2017-12-31T19:26:43.861Z,990.35
2017-12-31T19:27:43.920Z,990.32
2017-12-31T19:29:37.818Z,990.20
2017-12-31T19:30:37.473Z,990.22
2017-12-31T19:32:31.040Z,990.23
2017-12-31T19:33:31.035Z,990.20
2017-12-31T19:35:22.318Z,990.13
2017-12-31T19:36:24.605Z,990.07
2017-12-31T19:38:18.152Z,990.04
2017-12-31T19:39:18.119Z,990.02
2017-12-31T19:41:10.767Z,989.95
2017-12-31T19:42:11.683Z,989.91
2017-12-31T19:44:05.277Z,989.93
2017-12-31T19:45:05.274Z,989.85
2017-12-31T19:46:57.866Z,989.76
2017-12-31T19:47:58.819Z,989.81
2017-12-31T19:49:51.539Z,989.91
2017-12-31T19:50:52.396Z,989.96
2017-12-31T19:52:44.043Z,989.88
2017-12-31T19:53:45.921Z,989.79
2017-12-31T19:55:40.133Z,989.76
2017-12-31T19:56:39.500Z,989.84
2017-12-31T19:58:33.055Z,989.81
2017-12-31T19:59:33.056Z,989.84
2017-12-31T20:01:25.686Z,989.83
2017-12-31T20:02:26.615Z,990.07
2017-12-31T20:04:20.278Z,990.07
2017-12-31T20:05:20.156Z,989.99
2017-12-31T20:07:14.320Z,990.30
2017-12-31T20:08:13.723Z,990.35
2017-12-31T20:10:07.294Z,990.61
2017-12-31T20:11:07.380Z,990.60
2017-12-31T20:12:59.991Z,990.82
2017-12-31T20:14:00.882Z,990.65
2017-12-31T20:15:53.257Z,990.84
2017-12-31T20:16:54.459Z,990.79
2017-12-31T20:18:47.080Z,991.00
2017-12-31T20:19:48.053Z,990.95
2017-12-31T20:21:41.486Z,990.90
2017-12-31T20:22:41.554Z,990.92
2017-12-31T20:24:33.436Z,990.88
2017-12-31T20:25:35.269Z,990.93
2017-12-31T20:27:28.056Z,991.02
2017-12-31T20:28:28.720Z,990.94
2017-12-31T20:30:21.170Z,990.92
2017-12-31T20:31:22.229Z,990.75
2017-12-31T20:33:15.817Z,990.82
2017-12-31T20:34:15.791Z,990.81
2017-12-31T20:36:08.468Z,990.90
2017-12-31T20:37:09.346Z,990.92
2017-12-31T20:39:02.949Z,990.85
2017-12-31T20:40:02.930Z,990.91
2017-12-31T20:41:56.238Z,990.97
2017-12-31T20:42:56.474Z,990.96
2017-12-31T20:44:47.189Z,991.00
2017-12-31T20:45:50.039Z,991.18
2017-12-31T20:47:42.745Z,991.20
2017-12-31T20:48:43.743Z,991.21
2017-12-31T20:50:37.217Z,991.36
2017-12-31T20:51:37.161Z,991.33
2017-12-31T20:53:31.631Z,991.37
2017-12-31T20:54:30.718Z,991.41
2017-12-31T20:56:23.198Z,991.32
2017-12-31T20:57:24.313Z,991.42
2017-12-31T20:59:16.994Z,991.42
2017-12-31T21:00:17.830Z,991.39
2017-12-31T21:02:10.303Z,991.32
2017-12-31T21:03:10.579Z,991.36
2017-12-31T21:05:05.018Z,991.39
2017-12-31T21:06:04.988Z,991.39
2017-12-31T21:07:57.650Z,991.38
2017-12-31T21:08:58.563Z,991.33
2017-12-31T21:10:52.175Z,991.34
2017-12-31T21:11:52.087Z,991.34
2017-12-31T21:13:42.838Z,991.31
2017-12-31T21:14:46.588Z,991.36
2017-12-31T21:16:39.252Z,991.33
2017-12-31T21:17:39.205Z,991.44
2017-12-31T21:19:30.775Z,991.48
2017-12-31T21:20:32.795Z,991.48
2017-12-31T21:22:26.385Z,991.43
2017-12-31T21:23:26.348Z,991.43
2017-12-31T21:25:18.796Z,991.50
2017-12-31T21:26:19.975Z,991.47
2017-12-31T21:28:13.450Z,991.53
2017-12-31T21:29:13.449Z,991.59
2017-12-31T21:31:06.142Z,991.58
2017-12-31T21:32:07.005Z,991.57
2017-12-31T21:34:00.576Z,991.56
2017-12-31T21:35:00.576Z,991.53
2017-12-31T21:36:53.336Z,991.53
2017-12-31T21:37:54.143Z,991.58
2017-12-31T21:39:47.729Z,991.56
2017-12-31T21:40:47.698Z,991.52
2017-12-31T21:42:40.375Z,991.45
2017-12-31T21:43:41.240Z,991.46
2017-12-31T21:45:33.963Z,991.55
2017-12-31T21:46:34.819Z,991.55
2017-12-31T21:48:28.374Z,991.57
2017-12-31T21:49:28.421Z,991.62
2017-12-31T21:51:20.838Z,991.71
2017-12-31T21:52:21.918Z,991.67
2017-12-31T21:54:12.634Z,991.73
2017-12-31T21:55:15.513Z,991.64
2017-12-31T21:57:08.129Z,991.67
2017-12-31T21:58:09.091Z,991.70
2017-12-31T22:00:02.603Z,991.78
2017-12-31T22:01:02.600Z,991.66
2017-12-31T22:02:56.825Z,991.69
2017-12-31T22:03:56.169Z,991.74
2017-12-31T22:05:49.709Z,991.75
2017-12-31T22:06:49.746Z,991.78
2017-12-31T22:08:42.407Z,991.78
2017-12-31T22:09:43.328Z,991.68
2017-12-31T22:11:34.197Z,991.74
2017-12-31T22:12:36.884Z,991.74
2017-12-31T22:14:29.526Z,991.85
2017-12-31T22:15:30.566Z,991.93
2017-12-31T22:17:24.026Z,992.00
2017-12-31T22:18:24.011Z,991.94
2017-12-31T22:20:15.373Z,992.01
2017-12-31T22:21:17.552Z,991.99
2017-12-31T22:23:11.153Z,991.96
2017-12-31T22:24:11.071Z,992.03
2017-12-31T22:26:03.718Z,992.04
2017-12-31T22:27:04.643Z,992.19
2017-12-31T22:28:55.629Z,992.11
2017-12-31T22:29:56.542Z,992.09
2017-12-31T22:31:50.834Z,992.05
2017-12-31T22:32:51.760Z,992.08
2017-12-31T22:34:45.195Z,992.11
2017-12-31T22:35:45.311Z,992.09
2017-12-31T22:37:38.031Z,992.12
2017-12-31T22:38:38.875Z,992.12
2017-12-31T22:40:32.436Z,992.09
2017-12-31T22:41:32.438Z,992.15
2017-12-31T22:43:26.631Z,992.11
2017-12-31T22:44:26.007Z,992.12
2017-12-31T22:46:19.548Z,992.15
2017-12-31T22:47:19.563Z,992.12
2017-12-31T22:49:12.235Z,992.07
2017-12-31T22:50:13.113Z,991.97
2017-12-31T22:52:05.634Z,992.06
2017-12-31T22:53:06.737Z,992.18
2017-12-31T22:55:03.581Z,992.17
2017-12-31T22:56:00.237Z,992.15
2017-12-31T22:57:53.020Z,992.26
2017-12-31T22:58:52.541Z,992.27
2017-12-31T23:00:47.367Z,992.34
2017-12-31T23:01:47.424Z,992.35
2017-12-31T23:03:41.501Z,992.36
2017-12-31T23:04:39.992Z,992.36
2017-12-31T23:06:33.418Z,992.38
2017-12-31T23:07:34.518Z,992.45
2017-12-31T23:09:26.974Z,992.42
2017-12-31T23:10:28.028Z,992.44
2017-12-31T23:12:21.586Z,992.53
2017-12-31T23:14:34.068Z,992.44
2017-12-31T23:15:35.003Z,992.40
2017-12-31T23:17:28.558Z,992.50
2017-12-31T23:18:26.886Z,992.64
2017-12-31T23:20:21.570Z,992.67
2017-12-31T23:21:19.764Z,992.70
2017-12-31T23:23:15.893Z,992.60
2017-12-31T23:24:15.668Z,992.64
2017-12-31T23:26:06.961Z,992.65
2017-12-31T23:27:09.266Z,992.67
2017-12-31T23:29:02.807Z,992.65
2017-12-31T23:30:01.250Z,992.73
2017-12-31T23:31:55.522Z,992.76
2017-12-31T23:32:56.760Z,992.78
2017-12-31T23:34:49.946Z,992.83
2017-12-31T23:35:48.289Z,992.71
2017-12-31T23:37:42.716Z,992.72
2017-12-31T23:38:41.623Z,992.64
2017-12-31T23:40:36.140Z,992.57
2017-12-31T23:42:50.431Z,992.55
2017-12-31T23:43:50.512Z,992.51
2017-12-31T23:45:43.097Z,992.62
2017-12-31T23:46:44.025Z,992.62
2017-12-31T23:48:36.699Z,992.60
2017-12-31T23:49:37.614Z,992.60
2017-12-31T23:51:30.171Z,992.59
2017-12-31T23:52:31.192Z,992.51
2017-12-31T23:54:24.693Z,992.52
2017-12-31T23:55:24.684Z,992.53
2017-12-31T23:57:18.947Z,992.55
2017-12-31T23:58:18.284Z,992.42
